createdAt,value
2023-02-16T00:00:51.529Z,97334.59
2023-02-16T00:03:21.746Z,97350.47
2023-02-16T00:05:49.145Z,97340.13
2023-02-16T00:08:16.002Z,97307.78
2023-02-16T00:11:03.198Z,97333.81
2023-02-16T00:13:47.616Z,97302.41
2023-02-16T00:16:15.943Z,97330.22
2023-02-16T00:18:42.964Z,97291.94
2023-02-16T00:21:09.856Z,97315.41
2023-02-16T00:23:36.716Z,97317.59
2023-02-16T00:26:03.899Z,97291.13
2023-02-16T00:28:33.134Z,97279.78
2023-02-16T00:30:59.790Z,97334.44
2023-02-16T00:33:26.617Z,97318.00
2023-02-16T00:35:53.355Z,97300.38
2023-02-16T00:38:19.991Z,97322.59
2023-02-16T00:40:47.078Z,97295.88
2023-02-16T00:43:30.655Z,97302.84
2023-02-16T00:45:58.903Z,97307.88
2023-02-16T00:48:25.650Z,97277.06
2023-02-16T00:50:53.532Z,97317.00
2023-02-16T00:53:20.151Z,97317.94
2023-02-16T00:55:46.955Z,97321.31
2023-02-16T00:58:22.205Z,97318.72
2023-02-16T01:01:03.075Z,97306.94
2023-02-16T01:03:29.938Z,97303.78
2023-02-16T01:06:15.196Z,97303.97
2023-02-16T01:09:01.904Z,97320.88
2023-02-16T01:11:28.870Z,97284.66
2023-02-16T01:13:57.065Z,97274.09
2023-02-16T01:16:27.524Z,97313.09
2023-02-16T01:18:54.187Z,97286.22
2023-02-16T01:21:22.015Z,97314.72
2023-02-16T01:23:48.955Z,97312.47
2023-02-16T01:26:18.642Z,97307.53
2023-02-16T01:28:46.841Z,97306.63
2023-02-16T01:31:16.435Z,97305.28
2023-02-16T01:33:43.517Z,97309.59
2023-02-16T01:36:35.063Z,97311.81
2023-02-16T01:39:02.704Z,97292.28
2023-02-16T01:41:29.228Z,97314.47
2023-02-16T01:44:09.584Z,97298.31
2023-02-16T01:46:43.446Z,97304.06
2023-02-16T01:49:20.535Z,97316.06
2023-02-16T01:51:58.040Z,97311.34
2023-02-16T01:54:34.713Z,97306.88
2023-02-16T01:57:18.677Z,97270.44
2023-02-16T01:59:45.405Z,97290.56
2023-02-16T02:02:36.913Z,97293.63
2023-02-16T02:05:34.057Z,97283.78
2023-02-16T02:08:14.020Z,97289.25
2023-02-16T02:10:51.204Z,97283.09
2023-02-16T02:13:33.293Z,97286.81
2023-02-16T02:16:01.337Z,97294.31
2023-02-16T02:18:28.113Z,97282.72
2023-02-16T02:21:44.214Z,97290.19
2023-02-16T02:24:23.726Z,97291.78
2023-02-16T02:26:56.483Z,97288.75
2023-02-16T02:29:50.761Z,97282.16
2023-02-16T02:32:47.124Z,97255.78
2023-02-16T02:35:34.781Z,97274.19
2023-02-16T02:38:15.404Z,97277.13
2023-02-16T02:41:16.662Z,97259.66
2023-02-16T02:43:56.613Z,97267.78
2023-02-16T02:46:32.398Z,97233.94
2023-02-16T02:48:59.228Z,97243.50
2023-02-16T02:51:28.675Z,97262.56
2023-02-16T02:54:23.809Z,97244.28
2023-02-16T02:57:43.450Z,97267.13
2023-02-16T03:00:37.310Z,97212.97
2023-02-16T03:03:09.468Z,97263.41
2023-02-16T03:05:40.128Z,97212.69
2023-02-16T03:08:15.757Z,97250.97
2023-02-16T03:11:06.631Z,97229.66
2023-02-16T03:13:46.738Z,97253.78
2023-02-16T03:16:20.198Z,97263.69
2023-02-16T03:19:06.373Z,97268.13
2023-02-16T03:21:53.570Z,97267.00
2023-02-16T03:24:47.504Z,97261.69
2023-02-16T03:27:53.039Z,97248.25
2023-02-16T03:30:21.776Z,97239.91
2023-02-16T03:32:49.211Z,97227.13
2023-02-16T03:35:16.019Z,97240.63
2023-02-16T03:37:44.287Z,97249.25
2023-02-16T03:40:29.632Z,97218.50
2023-02-16T03:43:06.148Z,97246.22
2023-02-16T03:45:35.538Z,97247.38
2023-02-16T03:48:02.530Z,97231.03
2023-02-16T03:50:29.848Z,97238.03
2023-02-16T03:53:06.666Z,97232.88
2023-02-16T03:55:38.138Z,97232.72
2023-02-16T03:58:06.401Z,97215.00
2023-02-16T04:00:34.158Z,97231.88
2023-02-16T04:03:01.043Z,97234.25
2023-02-16T04:05:28.013Z,97239.47
2023-02-16T04:07:54.682Z,97217.00
2023-02-16T04:10:21.593Z,97226.91
2023-02-16T04:12:48.209Z,97255.06
2023-02-16T04:15:17.978Z,97249.59
2023-02-16T04:17:45.231Z,97257.94
2023-02-16T04:20:15.181Z,97251.75
2023-02-16T04:22:41.936Z,97256.50
2023-02-16T04:25:09.059Z,97252.91
2023-02-16T04:27:36.886Z,97249.53
2023-02-16T04:30:05.801Z,97259.31
2023-02-16T04:32:32.971Z,97236.66
2023-02-16T04:34:59.850Z,97224.75
2023-02-16T04:37:26.487Z,97213.63
2023-02-16T04:39:53.075Z,97197.25
2023-02-16T04:42:19.825Z,97210.38
2023-02-16T04:44:46.491Z,97214.63
2023-02-16T04:47:13.123Z,97242.34
2023-02-16T04:49:39.733Z,97249.47
2023-02-16T04:52:06.459Z,97238.84
2023-02-16T04:54:33.624Z,97239.13
2023-02-16T04:57:00.624Z,97258.72
2023-02-16T04:59:27.297Z,97237.91
2023-02-16T05:01:54.004Z,97230.41
2023-02-16T05:04:20.737Z,97219.94
2023-02-16T05:06:47.297Z,97236.75
2023-02-16T05:09:13.940Z,97244.94
2023-02-16T05:11:59.258Z,97252.41
2023-02-16T05:14:46.881Z,97256.78
2023-02-16T05:17:19.259Z,97233.94
2023-02-16T05:19:52.197Z,97248.97
2023-02-16T05:22:19.327Z,97232.03
2023-02-16T05:24:46.302Z,97221.69
2023-02-16T05:27:16.374Z,97256.16
2023-02-16T05:29:42.966Z,97246.16
2023-02-16T05:32:09.878Z,97245.50
2023-02-16T05:34:36.927Z,97270.66
2023-02-16T05:37:03.590Z,97247.75
2023-02-16T05:39:30.221Z,97270.31
2023-02-16T05:41:57.112Z,97263.34
2023-02-16T05:44:24.058Z,97240.78
2023-02-16T05:46:50.917Z,97259.97
2023-02-16T05:49:18.100Z,97248.38
2023-02-16T05:51:45.199Z,97282.44
2023-02-16T05:54:17.286Z,97296.66
2023-02-16T05:56:50.450Z,97291.84
2023-02-16T05:59:17.400Z,97272.00
2023-02-16T06:01:48.525Z,97294.38
2023-02-16T06:04:17.259Z,97288.13
2023-02-16T06:06:44.155Z,97252.56
2023-02-16T06:09:11.156Z,97279.81
2023-02-16T06:11:37.861Z,97279.69
2023-02-16T06:14:13.227Z,97283.50
2023-02-16T06:16:42.053Z,97287.53
2023-02-16T06:19:09.529Z,97269.84
2023-02-16T06:21:38.498Z,97268.50
2023-02-16T06:24:05.689Z,97262.69
2023-02-16T06:26:32.516Z,97267.88
2023-02-16T06:28:59.346Z,97255.66
2023-02-16T06:31:26.803Z,97290.19
2023-02-16T06:33:54.308Z,97262.81
2023-02-16T06:36:20.985Z,97282.50
2023-02-16T06:38:47.743Z,97245.91
2023-02-16T06:41:31.128Z,97256.50
2023-02-16T06:44:02.287Z,97273.16
2023-02-16T06:46:29.625Z,97294.50
2023-02-16T06:48:56.320Z,97300.34
2023-02-16T06:51:23.435Z,97291.94
2023-02-16T06:53:50.124Z,97253.69
2023-02-16T06:56:16.785Z,97300.38
2023-02-16T06:58:43.518Z,97283.00
2023-02-16T07:01:10.276Z,97264.19
2023-02-16T07:03:37.050Z,97265.13
2023-02-16T07:06:04.070Z,97289.13
2023-02-16T07:08:30.779Z,97271.94
2023-02-16T07:10:57.325Z,97284.31
2023-02-16T07:13:23.981Z,97269.13
2023-02-16T07:15:50.734Z,97286.97
2023-02-16T07:18:17.380Z,97261.09
2023-02-16T07:20:44.015Z,97306.56
2023-02-16T07:23:10.620Z,97297.59
2023-02-16T07:25:37.360Z,97289.25
2023-02-16T07:28:04.477Z,97297.88
2023-02-16T07:30:31.217Z,97289.84
2023-02-16T07:32:57.874Z,97269.72
2023-02-16T07:35:24.524Z,97246.81
2023-02-16T07:37:51.126Z,97292.13
2023-02-16T07:40:18.066Z,97255.66
2023-02-16T07:42:44.667Z,97293.63
2023-02-16T07:45:11.305Z,97293.56
2023-02-16T07:47:37.913Z,97268.72
2023-02-16T07:50:05.265Z,97286.31
2023-02-16T07:52:31.889Z,97291.00
2023-02-16T07:54:59.175Z,97307.97
2023-02-16T07:57:27.306Z,97277.63
2023-02-16T07:59:55.251Z,97302.06
2023-02-16T08:02:23.445Z,97269.31
2023-02-16T08:04:52.732Z,97284.28
2023-02-16T08:07:20.394Z,97282.44
2023-02-16T08:09:47.181Z,97282.38
2023-02-16T08:12:15.191Z,97312.13
2023-02-16T08:14:42.288Z,97305.72
2023-02-16T08:17:09.669Z,97287.09
2023-02-16T08:19:37.186Z,97252.25
2023-02-16T08:22:04.930Z,97282.94
2023-02-16T08:24:31.892Z,97281.16
2023-02-16T08:26:58.536Z,97273.22
2023-02-16T08:29:25.663Z,97294.16
2023-02-16T08:31:53.361Z,97301.09
2023-02-16T08:34:21.242Z,97299.97
2023-02-16T08:36:53.209Z,97310.34
2023-02-16T08:39:20.546Z,97308.41
2023-02-16T08:41:48.837Z,97305.63
2023-02-16T08:44:17.169Z,97313.75
2023-02-16T08:46:45.804Z,97299.25
2023-02-16T08:49:13.131Z,97317.00
2023-02-16T08:51:46.385Z,97321.16
2023-02-16T08:54:18.870Z,97295.50
2023-02-16T08:56:47.851Z,97300.06
2023-02-16T08:59:16.625Z,97295.84
2023-02-16T09:01:43.472Z,97329.19
2023-02-16T09:04:10.181Z,97296.53
2023-02-16T09:06:38.605Z,97329.78
2023-02-16T09:09:06.200Z,97308.59
2023-02-16T09:11:33.134Z,97317.63
2023-02-16T09:13:59.715Z,97316.63
2023-02-16T09:16:29.135Z,97336.59
2023-02-16T09:18:57.369Z,97325.09
2023-02-16T09:21:25.728Z,97358.38
2023-02-16T09:23:55.803Z,97362.94
2023-02-16T09:26:24.292Z,97365.06
2023-02-16T09:28:53.646Z,97356.97
2023-02-16T09:31:25.738Z,97359.44
2023-02-16T09:33:56.082Z,97363.38
2023-02-16T09:36:23.210Z,97356.16
2023-02-16T09:38:51.403Z,97376.97
2023-02-16T09:41:30.076Z,97373.47
2023-02-16T09:44:10.008Z,97374.94
2023-02-16T09:46:37.923Z,97365.03
2023-02-16T09:49:05.190Z,97352.06
2023-02-16T09:51:44.533Z,97363.66
2023-02-16T09:54:26.939Z,97364.69
2023-02-16T09:57:00.177Z,97365.25
2023-02-16T09:59:35.793Z,97365.84
2023-02-16T10:02:36.515Z,97329.97
2023-02-16T10:05:35.390Z,97375.78
2023-02-16T10:08:11.897Z,97365.06
2023-02-16T10:10:53.546Z,97344.75
2023-02-16T10:13:38.748Z,97357.59
2023-02-16T10:16:11.242Z,97318.81
2023-02-16T10:18:42.937Z,97361.59
2023-02-16T10:21:21.759Z,97332.34
2023-02-16T10:23:58.292Z,97355.47
2023-02-16T10:26:38.520Z,97361.31
2023-02-16T10:29:18.177Z,97359.63
2023-02-16T10:32:20.794Z,97363.44
2023-02-16T10:34:47.354Z,97361.63
2023-02-16T10:37:13.948Z,97359.38
2023-02-16T10:39:55.740Z,97362.97
2023-02-16T10:42:38.848Z,97352.38
2023-02-16T10:45:15.488Z,97344.91
2023-02-16T10:47:45.200Z,97353.25
2023-02-16T10:50:28.274Z,97321.63
2023-02-16T10:53:00.870Z,97340.19
2023-02-16T10:55:27.840Z,97347.16
2023-02-16T10:57:58.258Z,97349.84
2023-02-16T11:00:37.833Z,97346.72
2023-02-16T11:03:10.865Z,97346.97
2023-02-16T11:05:39.636Z,97344.88
2023-02-16T11:08:07.960Z,97329.81
2023-02-16T11:10:38.907Z,97341.59
2023-02-16T11:13:07.993Z,97325.38
2023-02-16T11:15:38.670Z,97299.06
2023-02-16T11:18:08.648Z,97323.50
2023-02-16T11:20:42.173Z,97326.88
2023-02-16T11:23:23.180Z,97283.53
2023-02-16T11:26:08.852Z,97305.59
2023-02-16T11:28:44.181Z,97316.09
2023-02-16T11:31:34.420Z,97305.66
2023-02-16T11:34:06.019Z,97304.53
2023-02-16T11:36:32.856Z,97311.69
2023-02-16T11:39:07.009Z,97307.38
2023-02-16T11:41:35.194Z,97276.44
2023-02-16T11:44:03.157Z,97292.81
2023-02-16T11:46:39.752Z,97288.75
2023-02-16T11:49:40.893Z,97297.72
2023-02-16T11:52:26.375Z,97293.72
2023-02-16T11:54:55.969Z,97284.03
2023-02-16T11:57:31.836Z,97283.69
2023-02-16T12:00:00.542Z,97298.38
2023-02-16T12:03:00.185Z,97293.31
2023-02-16T12:05:45.624Z,97283.53
2023-02-16T12:08:30.509Z,97285.19
2023-02-16T12:11:25.602Z,97284.97
2023-02-16T12:13:59.452Z,97262.91
2023-02-16T12:16:38.197Z,97252.34
2023-02-16T12:19:41.724Z,97251.22
2023-02-16T12:22:14.437Z,97288.91
2023-02-16T12:25:01.946Z,97289.28
2023-02-16T12:27:37.665Z,97275.25
2023-02-16T12:30:28.423Z,97277.13
2023-02-16T12:33:19.308Z,97273.16
2023-02-16T12:36:32.867Z,97260.88
2023-02-16T12:39:05.650Z,97273.94
2023-02-16T12:41:49.168Z,97261.50
2023-02-16T12:44:20.408Z,97264.22
2023-02-16T12:46:52.145Z,97262.28
2023-02-16T12:50:01.096Z,97257.84
2023-02-16T12:52:52.846Z,97263.97
2023-02-16T12:55:36.919Z,97231.78
2023-02-16T12:58:23.194Z,97231.38
2023-02-16T13:00:56.036Z,97223.09
2023-02-16T13:03:30.280Z,97164.66
2023-02-16T13:06:07.116Z,97233.63
2023-02-16T13:09:00.603Z,97251.00
2023-02-16T13:11:40.515Z,97247.41
2023-02-16T13:14:18.765Z,97209.44
2023-02-16T13:16:55.333Z,97233.41
2023-02-16T13:19:22.143Z,97222.91
2023-02-16T13:22:07.449Z,97245.13
2023-02-16T13:25:12.886Z,97244.09
2023-02-16T13:28:04.642Z,97234.06
2023-02-16T13:31:12.516Z,97247.13
2023-02-16T13:34:04.206Z,97223.81
2023-02-16T13:36:53.703Z,97249.09
2023-02-16T13:39:33.073Z,97254.94
2023-02-16T13:42:21.719Z,97239.69
2023-02-16T13:44:51.456Z,97248.06
2023-02-16T13:47:26.169Z,97189.50
2023-02-16T13:49:58.735Z,97219.66
2023-02-16T13:52:32.984Z,97243.72
2023-02-16T13:55:03.317Z,97226.97
2023-02-16T13:58:14.418Z,97252.06
2023-02-16T14:00:45.059Z,97252.59
2023-02-16T14:03:17.712Z,97246.47
2023-02-16T14:05:50.338Z,97255.09
2023-02-16T14:08:27.531Z,97255.47
2023-02-16T14:10:54.123Z,97243.59
2023-02-16T14:13:39.119Z,97248.97
2023-02-16T14:16:08.902Z,97252.38
2023-02-16T14:18:46.338Z,97246.88
2023-02-16T14:21:25.552Z,97258.47
2023-02-16T14:23:57.313Z,97248.34
2023-02-16T14:26:24.995Z,97252.09
2023-02-16T14:29:01.144Z,97247.78
2023-02-16T14:31:29.789Z,97242.91
2023-02-16T14:34:05.666Z,97242.66
2023-02-16T14:36:33.210Z,97226.53
2023-02-16T14:39:01.538Z,97251.66
2023-02-16T14:41:36.815Z,97223.69
2023-02-16T14:44:06.507Z,97250.28
2023-02-16T14:46:48.465Z,97242.66
2023-02-16T14:49:50.943Z,97251.22
2023-02-16T14:52:42.869Z,97245.75
2023-02-16T14:55:15.657Z,97249.81
2023-02-16T14:57:57.541Z,97249.84
2023-02-16T15:00:43.012Z,97248.31
2023-02-16T15:03:24.165Z,97235.91
2023-02-16T15:06:00.179Z,97234.09
2023-02-16T15:08:35.079Z,97181.91
2023-02-16T15:11:29.110Z,97247.09
2023-02-16T15:14:03.345Z,97179.91
2023-02-16T15:16:32.497Z,97222.84
2023-02-16T15:19:07.863Z,97188.16
2023-02-16T15:21:34.569Z,97169.13
2023-02-16T15:24:01.492Z,97188.13
2023-02-16T15:26:35.399Z,97194.06
2023-02-16T15:29:21.340Z,97233.19
2023-02-16T15:31:48.712Z,97224.31
2023-02-16T15:34:35.920Z,97224.84
2023-02-16T15:37:22.744Z,97211.56
2023-02-16T15:40:08.737Z,97153.06
2023-02-16T15:42:39.662Z,97188.66
2023-02-16T15:45:27.441Z,97163.53
2023-02-16T15:47:54.116Z,97178.94
2023-02-16T15:50:26.873Z,97144.38
2023-02-16T15:52:54.138Z,97148.00
2023-02-16T15:55:20.746Z,97174.13
2023-02-16T15:57:47.434Z,97132.69
2023-02-16T16:00:20.741Z,97097.50
2023-02-16T16:02:50.470Z,97176.31
2023-02-16T16:05:28.147Z,97184.13
2023-02-16T16:07:56.711Z,97145.09
2023-02-16T16:10:26.214Z,97186.22
2023-02-16T16:12:57.976Z,97184.50
2023-02-16T16:15:28.233Z,97124.34
2023-02-16T16:17:55.969Z,97124.09
2023-02-16T16:20:36.101Z,97187.69
2023-02-16T16:23:24.350Z,97182.72
2023-02-16T16:25:52.092Z,97178.00
2023-02-16T16:28:24.677Z,97183.06
2023-02-16T16:31:10.368Z,97171.72
2023-02-16T16:33:54.151Z,97142.91
2023-02-16T16:36:27.035Z,97135.56
2023-02-16T16:39:12.661Z,97183.59
2023-02-16T16:41:40.433Z,97145.38
2023-02-16T16:44:12.346Z,97119.78
2023-02-16T16:46:39.933Z,97160.31
2023-02-16T16:49:15.769Z,97115.50
2023-02-16T16:51:43.256Z,97085.97
2023-02-16T16:54:35.775Z,97149.75
2023-02-16T16:57:18.570Z,97179.16
2023-02-16T16:59:45.206Z,97148.59
2023-02-16T17:02:11.906Z,97165.78
2023-02-16T17:04:38.544Z,97168.41
2023-02-16T17:07:05.119Z,97174.28
2023-02-16T17:09:31.746Z,97114.06
2023-02-16T17:11:58.617Z,97180.91
2023-02-16T17:14:27.571Z,97147.44
2023-02-16T17:16:55.095Z,97147.81
2023-02-16T17:19:22.725Z,97179.47
2023-02-16T17:21:49.432Z,97160.91
2023-02-16T17:24:16.546Z,97171.38
2023-02-16T17:26:43.212Z,97109.44
2023-02-16T17:29:09.825Z,97159.13
2023-02-16T17:31:36.527Z,97109.78
2023-02-16T17:34:03.225Z,97104.66
2023-02-16T17:36:30.009Z,97176.34
2023-02-16T17:38:56.673Z,97137.75
2023-02-16T17:41:29.132Z,97127.53
2023-02-16T17:43:55.737Z,97164.59
2023-02-16T17:46:23.361Z,97151.97
2023-02-16T17:48:53.341Z,97168.41
2023-02-16T17:51:21.692Z,97162.38
2023-02-16T17:53:48.499Z,97123.97
2023-02-16T17:56:18.609Z,97161.59
2023-02-16T17:58:45.528Z,97136.88
2023-02-16T18:01:16.874Z,97157.88
2023-02-16T18:03:44.047Z,97138.97
2023-02-16T18:06:14.742Z,97166.06
2023-02-16T18:08:41.738Z,97146.63
2023-02-16T18:11:08.474Z,97142.31
2023-02-16T18:13:35.105Z,97119.16
2023-02-16T18:16:04.142Z,97128.53
2023-02-16T18:18:32.864Z,97129.16
2023-02-16T18:20:59.625Z,97132.69
2023-02-16T18:23:26.312Z,97138.75
2023-02-16T18:25:53.155Z,97164.22
2023-02-16T18:28:25.062Z,97168.38
2023-02-16T18:30:51.668Z,97129.38
2023-02-16T18:33:21.089Z,97170.09
2023-02-16T18:35:48.757Z,97152.47
2023-02-16T18:38:15.353Z,97140.41
2023-02-16T18:40:43.121Z,97149.56
2023-02-16T18:43:10.769Z,97134.91
2023-02-16T18:45:41.695Z,97143.31
2023-02-16T18:48:08.346Z,97162.69
2023-02-16T18:50:35.063Z,97120.75
2023-02-16T18:53:01.682Z,97085.78
2023-02-16T18:55:32.813Z,97129.88
2023-02-16T18:58:00.734Z,97118.63
2023-02-16T19:00:28.935Z,97156.72
2023-02-16T19:02:56.933Z,97149.09
2023-02-16T19:05:24.160Z,97134.03
2023-02-16T19:07:50.924Z,97125.63
2023-02-16T19:10:18.872Z,97154.19
2023-02-16T19:12:45.660Z,97141.38
2023-02-16T19:15:12.283Z,97143.50
2023-02-16T19:17:39.158Z,97130.81
2023-02-16T19:20:09.795Z,97167.84
2023-02-16T19:22:37.301Z,97172.16
2023-02-16T19:25:07.456Z,97141.94
2023-02-16T19:27:34.704Z,97165.78
2023-02-16T19:30:01.438Z,97128.22
2023-02-16T19:32:28.164Z,97160.72
2023-02-16T19:34:55.000Z,97164.66
2023-02-16T19:37:24.329Z,97165.00
2023-02-16T19:39:51.135Z,97124.66
2023-02-16T19:42:17.839Z,97122.31
2023-02-16T19:44:44.460Z,97128.84
2023-02-16T19:47:11.116Z,97134.44
2023-02-16T19:49:37.894Z,97130.81
2023-02-16T19:52:05.202Z,97131.13
2023-02-16T19:54:34.766Z,97158.38
2023-02-16T19:57:02.617Z,97076.00
2023-02-16T19:59:30.016Z,97136.56
2023-02-16T20:01:56.825Z,97093.66
2023-02-16T20:04:23.534Z,97116.88
2023-02-16T20:06:51.442Z,97120.13
2023-02-16T20:09:18.468Z,97142.41
2023-02-16T20:11:45.267Z,97137.09
2023-02-16T20:14:12.201Z,97133.34
2023-02-16T20:16:40.405Z,97125.25
2023-02-16T20:19:07.550Z,97117.59
2023-02-16T20:21:34.639Z,97131.06
2023-02-16T20:24:04.393Z,97138.47
2023-02-16T20:26:34.599Z,97133.56
2023-02-16T20:29:03.264Z,97120.97
2023-02-16T20:31:37.709Z,97102.56
2023-02-16T20:34:04.872Z,97099.31
2023-02-16T20:36:32.331Z,97113.94
2023-02-16T20:38:59.084Z,97084.59
2023-02-16T20:41:25.737Z,97098.78
2023-02-16T20:43:52.429Z,97064.22
2023-02-16T20:49:09.980Z,97111.03
2023-02-16T20:51:37.268Z,97075.03
2023-02-16T20:54:04.731Z,97106.25
2023-02-16T20:56:31.453Z,97097.53
2023-02-16T20:58:58.544Z,97092.47
2023-02-16T21:01:37.013Z,97099.16
2023-02-16T21:04:05.178Z,97109.09
2023-02-16T21:06:32.622Z,97097.00
2023-02-16T21:08:59.396Z,97117.69
2023-02-16T21:11:26.159Z,97087.09
2023-02-16T21:13:54.886Z,97103.94
2023-02-16T21:16:21.952Z,97121.28
2023-02-16T21:18:48.773Z,97121.75
2023-02-16T21:21:15.795Z,97094.97
2023-02-16T21:23:49.178Z,97121.41
2023-02-16T21:26:17.385Z,97103.66
2023-02-16T21:28:44.160Z,97077.44
2023-02-16T21:31:14.533Z,97100.72
2023-02-16T21:33:41.333Z,97086.34
2023-02-16T21:36:14.269Z,97093.25
2023-02-16T21:38:41.948Z,97088.38
2023-02-16T21:41:25.017Z,97088.44
2023-02-16T21:44:05.479Z,97085.31
2023-02-16T21:46:34.025Z,97047.16
2023-02-16T21:49:01.170Z,97074.09
2023-02-16T21:51:31.710Z,97081.78
2023-02-16T21:53:59.116Z,97073.41
2023-02-16T21:56:37.768Z,97075.66
2023-02-16T21:59:06.361Z,97074.63
2023-02-16T22:01:37.201Z,97084.22
2023-02-16T22:04:04.973Z,97074.97
2023-02-16T22:06:34.949Z,97073.94
2023-02-16T22:09:05.560Z,97079.38
2023-02-16T22:11:32.182Z,97061.53
2023-02-16T22:14:00.513Z,97078.25
2023-02-16T22:16:29.184Z,97071.19
2023-02-16T22:19:01.165Z,97079.03
2023-02-16T22:21:28.380Z,97082.50
2023-02-16T22:23:55.643Z,97053.28
2023-02-16T22:26:25.158Z,97042.31
2023-02-16T22:28:52.000Z,97076.38
2023-02-16T22:31:24.180Z,97017.41
2023-02-16T22:34:07.435Z,97074.81
2023-02-16T22:36:34.373Z,97043.69
2023-02-16T22:39:01.095Z,97052.94
2023-02-16T22:41:27.766Z,97031.09
2023-02-16T22:43:55.986Z,97072.53
2023-02-16T22:46:24.312Z,97065.81
2023-02-16T22:48:52.211Z,97029.22
2023-02-16T22:51:21.260Z,97029.97
2023-02-16T22:53:48.303Z,97050.28
2023-02-16T22:56:17.602Z,97055.00
2023-02-16T22:58:44.937Z,97049.66
2023-02-16T23:01:16.784Z,97019.41
2023-02-16T23:03:46.845Z,97021.72
2023-02-16T23:06:19.416Z,97050.25
2023-02-16T23:08:51.070Z,97046.16
2023-02-16T23:11:18.017Z,97043.63
2023-02-16T23:13:44.696Z,97020.06
2023-02-16T23:16:14.424Z,97039.22
2023-02-16T23:18:42.070Z,97021.13
2023-02-16T23:21:20.704Z,97040.31
2023-02-16T23:23:49.539Z,97034.28
2023-02-16T23:26:17.920Z,97027.56
2023-02-16T23:28:45.271Z,97018.91
2023-02-16T23:31:15.130Z,97006.03
2023-02-16T23:33:42.453Z,97012.81
2023-02-16T23:36:09.355Z,96997.44
2023-02-16T23:38:36.153Z,97016.56
2023-02-16T23:41:06.753Z,97016.06
2023-02-16T23:43:34.089Z,97018.13
2023-02-16T23:46:01.581Z,96998.16
2023-02-16T23:48:29.500Z,97007.31
2023-02-16T23:50:56.522Z,96908.59
2023-02-16T23:53:24.750Z,97007.53
2023-02-16T23:55:58.473Z,97010.94
2023-02-16T23:58:29.576Z,97001.53
